createdAt,value
2018-07-27T00:00:27.527Z,78.80
2018-07-27T00:01:31.018Z,79.00
2018-07-27T00:02:34.472Z,79.20
2018-07-27T00:03:38.018Z,80.50
2018-07-27T00:04:42.196Z,79.70
2018-07-27T00:05:45.671Z,79.80
2018-07-27T00:06:49.302Z,79.70
2018-07-27T00:07:53.005Z,80.00
2018-07-27T00:08:56.522Z,80.20
2018-07-27T00:10:00.079Z,80.30
2018-07-27T00:11:03.616Z,80.50
2018-07-27T00:12:08.213Z,80.60
2018-07-27T00:13:12.036Z,80.80
2018-07-27T00:14:15.574Z,80.90
2018-07-27T00:15:19.209Z,81.00
2018-07-27T00:16:23.037Z,81.20
2018-07-27T00:17:27.019Z,81.40
2018-07-27T00:18:31.131Z,81.40
2018-07-27T00:19:34.775Z,82.40
2018-07-27T00:20:38.307Z,81.70
2018-07-27T00:21:41.934Z,81.80
2018-07-27T00:22:46.748Z,82.00
2018-07-27T00:23:50.283Z,82.00
2018-07-27T00:24:53.878Z,82.10
2018-07-27T00:25:57.398Z,82.10
2018-07-27T00:28:05.077Z,82.40
2018-07-27T00:29:08.598Z,82.60
2018-07-27T00:30:12.740Z,83.20
2018-07-27T00:31:16.378Z,82.70
2018-07-27T00:32:19.862Z,82.50
2018-07-27T00:33:23.721Z,82.80
2018-07-27T00:34:27.971Z,82.80
2018-07-27T00:35:31.572Z,83.00
2018-07-27T00:36:35.072Z,82.90
2018-07-27T00:37:39.103Z,82.90
2018-07-27T00:38:42.821Z,83.10
2018-07-27T00:39:46.401Z,83.40
2018-07-27T00:40:50.004Z,83.50
2018-07-27T00:41:53.636Z,83.50
2018-07-27T00:42:57.210Z,83.70
2018-07-27T00:44:00.823Z,83.90
2018-07-27T00:45:04.734Z,84.00
2018-07-27T00:46:08.266Z,84.10
2018-07-27T00:47:11.864Z,84.20
2018-07-27T00:48:15.424Z,84.30
2018-07-27T00:49:19.828Z,84.50
2018-07-27T00:50:23.719Z,84.60
2018-07-27T00:51:27.336Z,84.70
2018-07-27T00:52:31.073Z,84.80
2018-07-27T00:53:34.835Z,85.10
2018-07-27T00:54:38.301Z,85.30
2018-07-27T00:55:42.116Z,85.40
2018-07-27T00:56:45.724Z,85.60
2018-07-27T00:57:49.871Z,85.90
2018-07-27T00:58:53.378Z,86.10
2018-07-27T00:59:57.413Z,86.00
2018-07-27T01:01:01.489Z,86.20
2018-07-27T01:02:05.097Z,86.40
2018-07-27T01:03:09.267Z,86.60
2018-07-27T01:04:12.725Z,86.70
2018-07-27T01:05:16.244Z,86.90
2018-07-27T01:06:19.824Z,87.20
2018-07-27T01:07:23.348Z,87.40
2018-07-27T01:08:27.583Z,87.40
2018-07-27T01:09:31.098Z,87.70
2018-07-27T01:10:34.743Z,87.80
2018-07-27T01:11:38.297Z,87.80
2018-07-27T01:12:41.951Z,88.00
2018-07-27T01:13:45.586Z,88.00
2018-07-27T01:14:49.137Z,88.20
2018-07-27T01:15:52.619Z,88.20
2018-07-27T01:16:56.185Z,88.30
2018-07-27T01:17:59.813Z,88.40
2018-07-27T01:19:03.441Z,88.70
2018-07-27T01:20:07.976Z,88.90
2018-07-27T01:21:11.545Z,89.00
2018-07-27T01:22:15.662Z,89.30
2018-07-27T01:23:19.316Z,89.30
2018-07-27T01:24:22.795Z,89.50
2018-07-27T01:25:26.279Z,89.60
2018-07-27T01:26:29.770Z,89.90
2018-07-27T01:27:34.138Z,90.00
2018-07-27T01:28:37.628Z,90.10
2018-07-27T01:29:41.541Z,90.20
2018-07-27T01:30:45.102Z,90.20
2018-07-27T01:32:51.870Z,90.40
2018-07-27T01:33:55.733Z,90.50
2018-07-27T01:35:00.211Z,91.00
2018-07-27T01:36:03.677Z,90.70
2018-07-27T01:37:07.722Z,90.80
2018-07-27T01:38:11.335Z,90.90
2018-07-27T01:39:15.699Z,91.00
2018-07-27T01:40:19.276Z,91.10
2018-07-27T01:41:22.789Z,91.20
2018-07-27T01:42:27.280Z,91.30
2018-07-27T01:43:30.759Z,91.40
2018-07-27T01:44:34.360Z,91.60
2018-07-27T01:45:37.824Z,91.60
2018-07-27T01:46:41.794Z,91.60
2018-07-27T01:47:45.263Z,91.70
2018-07-27T01:48:48.860Z,91.80
2018-07-27T01:49:52.374Z,91.80
2018-07-27T01:50:56.933Z,91.80
2018-07-27T01:52:00.426Z,91.90
2018-07-27T01:53:04.179Z,91.90
2018-07-27T01:54:07.644Z,92.20
2018-07-27T01:55:11.536Z,92.00
2018-07-27T01:56:15.012Z,92.00
2018-07-27T01:57:18.780Z,91.90
2018-07-27T01:58:22.270Z,91.90
2018-07-27T01:59:25.924Z,91.90
2018-07-27T02:00:29.556Z,91.90
2018-07-27T02:01:33.497Z,92.20
2018-07-27T02:02:37.253Z,91.90
2018-07-27T02:03:40.721Z,91.90
2018-07-27T02:04:44.583Z,92.00
2018-07-27T02:05:49.056Z,92.20
2018-07-27T02:06:52.633Z,92.20
2018-07-27T02:07:56.331Z,92.20
2018-07-27T02:09:00.090Z,92.70
2018-07-27T02:10:03.674Z,92.30
2018-07-27T02:11:07.156Z,92.40
2018-07-27T02:12:10.787Z,92.50
2018-07-27T02:13:15.166Z,92.70
2018-07-27T02:14:18.673Z,92.60
2018-07-27T02:15:22.172Z,92.90
2018-07-27T02:16:25.738Z,92.70
2018-07-27T02:17:29.364Z,92.80
2018-07-27T02:18:32.996Z,92.90
2018-07-27T02:19:38.072Z,93.00
2018-07-27T02:20:41.871Z,93.10
2018-07-27T02:21:45.601Z,93.10
2018-07-27T02:22:49.192Z,93.10
2018-07-27T02:23:52.868Z,93.20
2018-07-27T02:24:56.565Z,93.30
2018-07-27T02:26:00.170Z,93.30
2018-07-27T02:27:03.723Z,93.30
2018-07-27T02:28:07.202Z,93.30
2018-07-27T02:29:10.833Z,93.40
2018-07-27T02:30:14.262Z,93.60
2018-07-27T02:31:17.762Z,93.60
2018-07-27T02:32:21.411Z,93.60
2018-07-27T02:33:25.149Z,93.50
2018-07-27T02:34:28.669Z,93.80
2018-07-27T02:35:32.145Z,93.80
2018-07-27T02:36:35.639Z,93.80
2018-07-27T02:37:39.703Z,93.90
2018-07-27T02:38:43.291Z,94.00
2018-07-27T02:39:46.796Z,94.20
2018-07-27T02:40:50.430Z,94.20
2018-07-27T02:41:54.063Z,94.40
2018-07-27T02:42:57.542Z,94.40
2018-07-27T02:44:01.620Z,94.70
2018-07-27T02:45:06.219Z,94.90
2018-07-27T02:46:10.046Z,94.80
2018-07-27T02:48:16.840Z,95.90
2018-07-27T02:49:20.333Z,95.60
2018-07-27T02:50:23.802Z,95.90
2018-07-27T02:51:27.546Z,96.10
2018-07-27T02:52:31.022Z,96.40
2018-07-27T02:53:34.515Z,96.60
2018-07-27T02:54:38.426Z,97.00
2018-07-27T02:55:41.983Z,97.10
2018-07-27T02:56:45.512Z,97.20
2018-07-27T02:57:49.027Z,97.40
2018-07-27T02:58:52.984Z,97.40
2018-07-27T02:59:56.495Z,97.80
2018-07-27T03:01:00.296Z,97.90
2018-07-27T03:02:03.831Z,97.80
2018-07-27T03:03:08.203Z,97.70
2018-07-27T03:04:11.804Z,97.60
2018-07-27T03:05:15.358Z,97.60
2018-07-27T03:06:19.107Z,97.50
2018-07-27T03:07:22.714Z,97.70
2018-07-27T03:08:26.247Z,97.60
2018-07-27T03:09:29.723Z,97.50
2018-07-27T03:10:33.206Z,97.50
2018-07-27T03:11:36.853Z,97.50
2018-07-27T03:12:40.448Z,97.40
2018-07-27T03:13:44.022Z,97.40
2018-07-27T03:14:48.207Z,97.70
2018-07-27T03:16:54.908Z,97.10
2018-07-27T03:17:58.601Z,97.40
2018-07-27T03:19:02.156Z,97.60
2018-07-27T03:20:06.051Z,97.70
2018-07-27T03:21:09.719Z,98.10
2018-07-27T03:22:13.348Z,98.10
2018-07-27T03:23:17.032Z,98.10
2018-07-27T03:25:24.030Z,98.10
2018-07-27T03:26:27.491Z,98.30
2018-07-27T03:27:31.056Z,98.40
2018-07-27T03:28:34.564Z,98.50
2018-07-27T03:29:38.117Z,98.60
2018-07-27T03:30:41.593Z,98.70
2018-07-27T03:31:45.072Z,98.80
2018-07-27T03:32:48.575Z,98.90
2018-07-27T03:33:52.222Z,98.90
2018-07-27T03:34:56.340Z,98.80
2018-07-27T03:35:59.905Z,98.80
2018-07-27T03:37:03.512Z,98.90
2018-07-27T03:38:07.748Z,98.90
2018-07-27T03:39:12.111Z,98.90
2018-07-27T03:40:15.701Z,99.00
2018-07-27T03:41:19.181Z,99.20
2018-07-27T03:42:23.803Z,99.30
2018-07-27T03:43:27.319Z,99.50
2018-07-27T03:44:30.923Z,99.60
2018-07-27T03:45:34.434Z,99.70
2018-07-27T03:46:38.514Z,99.80
2018-07-27T03:47:42.257Z,99.80
2018-07-27T03:48:45.959Z,99.90
2018-07-27T03:49:49.488Z,99.90
2018-07-27T03:50:53.708Z,99.90
2018-07-27T03:51:57.423Z,99.90
2018-07-27T03:53:01.052Z,99.90
2018-07-27T03:54:04.740Z,99.90
2018-07-27T03:56:11.749Z,99.90
2018-07-27T03:57:15.296Z,99.90
2018-07-27T03:58:19.950Z,99.90
2018-07-27T03:59:23.574Z,99.90
2018-07-27T04:00:27.353Z,99.90
2018-07-27T04:01:30.823Z,99.90
2018-07-27T04:02:34.294Z,99.90
2018-07-27T04:03:37.841Z,99.90
2018-07-27T04:04:41.397Z,99.90
2018-07-27T04:05:44.903Z,99.90
2018-07-27T04:06:48.397Z,99.60
2018-07-27T04:07:51.892Z,99.70
2018-07-27T04:08:55.601Z,99.70
2018-07-27T04:09:59.111Z,99.60
2018-07-27T04:11:02.668Z,99.60
2018-07-27T04:12:06.799Z,99.60
2018-07-27T04:13:10.382Z,99.60
2018-07-27T04:15:17.652Z,99.70
2018-07-27T04:16:21.207Z,99.40
2018-07-27T04:17:24.763Z,99.30
2018-07-27T04:18:28.741Z,99.30
2018-07-27T04:19:32.270Z,99.10
2018-07-27T04:20:35.903Z,99.10
2018-07-27T04:21:39.654Z,99.00
2018-07-27T04:22:43.118Z,99.00
2018-07-27T04:23:47.488Z,99.00
2018-07-27T04:24:52.314Z,98.80
2018-07-27T04:25:56.246Z,98.70
2018-07-27T04:26:59.759Z,98.60
2018-07-27T04:28:03.339Z,98.50
2018-07-27T04:29:07.347Z,98.30
2018-07-27T04:30:11.215Z,98.00
2018-07-27T04:32:18.568Z,96.80
2018-07-27T04:33:22.162Z,96.30
2018-07-27T04:34:25.724Z,95.30
2018-07-27T04:35:29.799Z,94.60
2018-07-27T04:36:33.263Z,93.60
2018-07-27T04:37:36.896Z,93.00
2018-07-27T04:38:40.409Z,92.20
2018-07-27T04:39:43.893Z,91.40
2018-07-27T04:40:47.502Z,90.50
2018-07-27T04:41:51.050Z,90.00
2018-07-27T04:42:54.754Z,88.20
2018-07-27T04:43:58.323Z,87.00
2018-07-27T04:45:01.784Z,85.50
2018-07-27T04:46:05.333Z,84.90
2018-07-27T04:47:08.994Z,84.70
2018-07-27T04:48:12.643Z,83.10
2018-07-27T04:49:16.435Z,81.90
2018-07-27T04:50:19.865Z,80.90
2018-07-27T04:51:23.384Z,79.90
2018-07-27T04:52:26.884Z,78.30
2018-07-27T04:53:30.400Z,77.70
2018-07-27T04:54:33.984Z,76.70
2018-07-27T04:55:37.607Z,75.20
2018-07-27T04:56:41.093Z,74.60
2018-07-27T04:57:44.696Z,74.00
2018-07-27T04:58:48.194Z,72.80
2018-07-27T04:59:53.126Z,72.40
2018-07-27T05:00:57.193Z,71.80
2018-07-27T05:02:00.795Z,70.60
2018-07-27T05:03:04.325Z,70.00
2018-07-27T05:04:07.932Z,69.60
2018-07-27T05:05:11.428Z,69.50
2018-07-27T05:06:15.573Z,68.80
2018-07-27T05:07:19.088Z,68.50
2018-07-27T05:08:22.699Z,68.00
2018-07-27T05:09:26.166Z,67.60
2018-07-27T05:10:35.111Z,67.10
2018-07-27T05:11:38.652Z,66.50
2018-07-27T05:12:42.120Z,65.60
2018-07-27T05:13:46.446Z,65.30
2018-07-27T05:14:50.305Z,64.40
2018-07-27T05:15:54.074Z,63.80
2018-07-27T05:16:58.114Z,63.50
2018-07-27T05:18:01.623Z,63.10
2018-07-27T05:19:05.159Z,62.80
2018-07-27T05:20:08.722Z,62.30
2018-07-27T05:21:12.217Z,61.90
2018-07-27T05:22:15.947Z,61.60
2018-07-27T05:23:19.505Z,60.70
2018-07-27T05:24:23.093Z,60.50
2018-07-27T05:25:26.680Z,59.90
2018-07-27T05:26:30.457Z,59.30
2018-07-27T05:27:33.983Z,58.10
2018-07-27T05:28:37.780Z,58.20
2018-07-27T05:29:41.341Z,57.60
2018-07-27T05:30:45.184Z,57.60
2018-07-27T05:31:48.961Z,57.40
2018-07-27T05:32:53.167Z,57.00
2018-07-27T05:33:56.728Z,56.70
2018-07-27T05:35:00.737Z,56.30
2018-07-27T05:36:04.236Z,56.00
2018-07-27T05:37:07.750Z,55.40
2018-07-27T05:39:14.469Z,54.50
2018-07-27T05:40:17.977Z,54.00
2018-07-27T05:41:21.475Z,54.00
2018-07-27T05:42:24.936Z,53.80
2018-07-27T05:43:28.490Z,53.60
2018-07-27T05:45:35.088Z,53.60
2018-07-27T05:46:38.528Z,53.30
2018-07-27T05:47:42.173Z,52.80
2018-07-27T05:48:46.280Z,52.50
2018-07-27T05:49:49.809Z,52.20
2018-07-27T05:50:53.378Z,51.80
2018-07-27T05:51:57.584Z,51.90
2018-07-27T05:53:01.722Z,51.70
2018-07-27T05:54:05.588Z,51.50
2018-07-27T05:55:09.124Z,51.30
2018-07-27T05:56:12.789Z,51.40
2018-07-27T05:58:19.465Z,50.90
2018-07-27T05:59:22.941Z,50.60
2018-07-27T06:00:26.654Z,50.30
2018-07-27T06:01:30.452Z,50.00
2018-07-27T06:02:34.163Z,49.80
2018-07-27T06:03:37.873Z,49.60
2018-07-27T06:04:41.616Z,49.20
2018-07-27T06:05:45.291Z,48.70
2018-07-27T06:06:48.798Z,48.10
2018-07-27T06:07:52.725Z,47.90
2018-07-27T06:08:56.737Z,47.00
2018-07-27T06:10:00.228Z,47.30
2018-07-27T06:11:03.962Z,47.10
2018-07-27T06:12:07.736Z,46.80
2018-07-27T06:13:12.997Z,46.80
2018-07-27T06:14:19.172Z,46.30
2018-07-27T06:15:23.464Z,46.00
2018-07-27T06:16:27.066Z,45.80
2018-07-27T06:17:30.616Z,45.60
2018-07-27T06:19:38.718Z,46.20
2018-07-27T06:20:42.228Z,46.60
2018-07-27T06:21:45.939Z,45.80
2018-07-27T06:22:49.630Z,45.80
2018-07-27T06:23:53.177Z,45.60
2018-07-27T06:24:56.678Z,45.10
2018-07-27T06:26:00.171Z,44.70
2018-07-27T06:27:03.855Z,44.20
2018-07-27T06:28:08.559Z,44.40
2018-07-27T06:29:14.231Z,44.00
2018-07-27T06:30:21.349Z,43.40
2018-07-27T06:31:25.022Z,43.50
2018-07-27T06:32:28.549Z,43.70
2018-07-27T06:33:32.077Z,44.40
2018-07-27T06:34:35.636Z,44.90
2018-07-27T06:35:39.697Z,43.80
2018-07-27T06:36:43.109Z,43.70
2018-07-27T06:37:47.320Z,43.90
2018-07-27T06:38:50.781Z,43.90
2018-07-27T06:39:54.289Z,43.80
2018-07-27T06:40:57.805Z,43.80
2018-07-27T06:42:01.257Z,43.60
2018-07-27T06:43:04.759Z,43.20
2018-07-27T06:44:08.620Z,42.60
2018-07-27T06:45:17.433Z,42.60
2018-07-27T06:46:24.263Z,42.60
2018-07-27T06:47:27.845Z,42.40
2018-07-27T06:48:31.428Z,42.80
2018-07-27T06:49:35.256Z,42.80
2018-07-27T06:50:38.752Z,42.20
2018-07-27T06:51:42.203Z,41.90
2018-07-27T06:52:46.385Z,41.60
2018-07-27T06:53:50.017Z,41.80
2018-07-27T06:54:53.606Z,40.60
2018-07-27T06:55:57.134Z,40.80
2018-07-27T06:57:00.740Z,40.70
2018-07-27T06:58:04.300Z,40.30
2018-07-27T06:59:07.792Z,40.50
2018-07-27T07:00:11.549Z,40.40
2018-07-27T07:01:19.691Z,40.40
2018-07-27T07:02:23.205Z,40.30
2018-07-27T07:03:26.790Z,40.20
2018-07-27T07:04:30.454Z,39.40
2018-07-27T07:05:33.966Z,39.20
2018-07-27T07:06:38.359Z,39.10
2018-07-27T07:07:41.947Z,39.00
2018-07-27T07:08:45.828Z,39.00
2018-07-27T07:09:49.420Z,38.60
2018-07-27T07:10:53.137Z,38.60
2018-07-27T07:11:57.359Z,38.80
2018-07-27T07:13:01.148Z,38.30
2018-07-27T07:14:05.237Z,38.50
2018-07-27T07:15:11.136Z,38.70
2018-07-27T07:16:15.872Z,38.80
2018-07-27T07:17:22.173Z,39.10
2018-07-27T07:18:25.781Z,39.20
2018-07-27T07:19:29.321Z,39.40
2018-07-27T07:20:33.110Z,39.50
2018-07-27T07:21:37.060Z,39.20
2018-07-27T07:22:40.666Z,38.80
2018-07-27T07:23:44.305Z,38.50
2018-07-27T07:24:47.922Z,38.20
2018-07-27T07:25:51.844Z,38.50
2018-07-27T07:26:55.769Z,38.50
2018-07-27T07:27:59.643Z,38.40
2018-07-27T07:29:03.208Z,39.00
2018-07-27T07:30:07.310Z,39.50
2018-07-27T07:31:11.938Z,39.20
2018-07-27T07:32:18.011Z,39.40
2018-07-27T07:33:21.957Z,39.70
2018-07-27T07:34:26.386Z,39.50
2018-07-27T07:35:29.914Z,39.60
2018-07-27T07:37:37.241Z,39.00
2018-07-27T07:38:40.742Z,39.00
2018-07-27T07:39:44.221Z,38.80
2018-07-27T07:40:57.769Z,39.00
2018-07-27T07:42:01.251Z,38.40
2018-07-27T07:43:05.412Z,38.00
2018-07-27T07:44:09.887Z,37.90
2018-07-27T07:45:13.497Z,37.90
2018-07-27T07:46:17.896Z,37.60
2018-07-27T07:47:21.508Z,37.50
2018-07-27T07:48:25.551Z,37.50
2018-07-27T07:49:29.664Z,37.90
2018-07-27T07:50:33.678Z,36.90
2018-07-27T07:51:38.082Z,36.40
2018-07-27T07:52:41.813Z,36.20
2018-07-27T07:53:45.466Z,36.10
2018-07-27T07:54:49.040Z,36.40
2018-07-27T07:55:52.593Z,36.40
2018-07-27T07:56:56.778Z,36.50
2018-07-27T07:58:00.366Z,36.50
2018-07-27T07:59:05.131Z,36.90
2018-07-27T08:00:09.773Z,37.30
2018-07-27T08:01:13.365Z,37.50
2018-07-27T08:02:17.705Z,37.60
2018-07-27T08:03:21.233Z,37.10
2018-07-27T08:04:24.784Z,36.90
2018-07-27T08:05:28.537Z,37.40
2018-07-27T08:06:32.696Z,37.60
2018-07-27T08:07:36.347Z,37.70
2018-07-27T08:08:39.926Z,37.50
2018-07-27T08:09:43.617Z,37.20
2018-07-27T08:10:48.231Z,37.00
2018-07-27T08:11:52.532Z,36.80
2018-07-27T08:12:56.670Z,36.50
2018-07-27T08:14:00.193Z,36.10
2018-07-27T08:15:03.969Z,35.80
2018-07-27T08:16:07.579Z,36.00
2018-07-27T08:17:11.249Z,35.90
2018-07-27T08:18:14.809Z,36.20
2018-07-27T08:19:18.885Z,36.60
2018-07-27T08:20:22.555Z,36.90
2018-07-27T08:21:27.512Z,36.90
2018-07-27T08:22:31.821Z,36.90
2018-07-27T08:23:35.436Z,36.70
2018-07-27T08:24:40.011Z,36.60
2018-07-27T08:26:58.376Z,36.50
2018-07-27T08:29:11.818Z,36.20
2018-07-27T08:30:16.015Z,35.40
2018-07-27T08:31:19.638Z,35.60
2018-07-27T08:32:23.284Z,35.60
2018-07-27T08:33:26.891Z,35.70
2018-07-27T08:34:30.576Z,36.20
2018-07-27T08:35:35.533Z,36.60
2018-07-27T08:36:40.507Z,37.10
2018-07-27T08:37:44.094Z,36.10
2018-07-27T08:38:47.738Z,36.60
2018-07-27T08:39:51.320Z,35.70
2018-07-27T08:40:55.476Z,35.90
2018-07-27T08:41:59.240Z,35.10
2018-07-27T08:43:03.716Z,35.10
2018-07-27T08:44:09.104Z,35.50
2018-07-27T08:45:12.787Z,35.40
2018-07-27T08:46:16.517Z,35.70
2018-07-27T08:47:20.086Z,36.00
2018-07-27T08:48:23.994Z,36.80
2018-07-27T08:49:28.270Z,36.20
2018-07-27T08:50:32.957Z,35.70
2018-07-27T08:51:36.586Z,35.80
2018-07-27T08:52:40.140Z,35.40
2018-07-27T08:53:43.782Z,35.20
2018-07-27T08:54:48.044Z,35.10
2018-07-27T08:55:52.412Z,35.00
2018-07-27T08:56:55.983Z,35.20
2018-07-27T08:57:59.803Z,34.90
2018-07-27T08:59:04.159Z,35.00
2018-07-27T09:00:08.401Z,34.90
2018-07-27T09:01:12.126Z,35.80
2018-07-27T09:03:32.539Z,35.20
2018-07-27T09:04:36.212Z,35.50
2018-07-27T09:05:39.751Z,35.40
2018-07-27T09:06:43.326Z,35.60
2018-07-27T09:07:46.848Z,35.60
2018-07-27T09:10:04.148Z,36.20
2018-07-27T09:11:07.733Z,36.10
2018-07-27T09:12:11.413Z,36.20
2018-07-27T09:13:15.037Z,35.90
2018-07-27T09:14:19.564Z,36.10
2018-07-27T09:15:23.108Z,36.20
2018-07-27T09:16:26.649Z,36.40
2018-07-27T09:17:31.017Z,36.20
2018-07-27T09:18:34.721Z,36.90
2018-07-27T09:19:38.305Z,36.10
2018-07-27T09:20:42.043Z,36.20
2018-07-27T09:21:45.630Z,35.90
2018-07-27T09:22:49.232Z,36.20
2018-07-27T09:23:52.746Z,36.60
2018-07-27T09:24:56.387Z,36.60
2018-07-27T09:26:00.557Z,36.70
2018-07-27T09:27:05.097Z,37.00
2018-07-27T09:28:08.577Z,37.20
2018-07-27T09:29:12.600Z,37.30
2018-07-27T09:30:17.079Z,37.50
2018-07-27T09:31:21.294Z,37.80
2018-07-27T09:32:25.192Z,38.20
2018-07-27T09:33:29.815Z,38.70
2018-07-27T09:34:33.371Z,38.80
2018-07-27T09:35:36.987Z,38.90
2018-07-27T09:36:41.373Z,38.70
2018-07-27T09:37:45.612Z,38.90
2018-07-27T09:38:49.534Z,37.90
2018-07-27T09:39:54.547Z,38.00
2018-07-27T09:40:58.302Z,38.50
2018-07-27T09:42:01.824Z,38.70
2018-07-27T09:43:05.439Z,38.80
2018-07-27T09:44:09.201Z,40.10
2018-07-27T09:45:13.310Z,39.30
2018-07-27T09:46:16.879Z,39.60
2018-07-27T09:47:20.478Z,40.10
2018-07-27T09:48:24.047Z,40.30
2018-07-27T09:49:27.767Z,40.70
2018-07-27T09:50:31.741Z,40.80
2018-07-27T09:51:35.905Z,40.30
2018-07-27T09:52:39.438Z,40.50
2018-07-27T09:53:42.994Z,40.30
2018-07-27T09:54:46.453Z,40.60
2018-07-27T09:55:50.032Z,40.70
2018-07-27T09:56:53.658Z,40.90
2018-07-27T09:57:57.233Z,41.20
2018-07-27T09:59:00.925Z,41.10
2018-07-27T10:00:04.774Z,41.40
2018-07-27T10:01:12.646Z,41.60
2018-07-27T10:02:16.403Z,41.90
2018-07-27T10:03:19.994Z,42.60
2018-07-27T10:04:23.515Z,42.80
2018-07-27T10:05:28.989Z,42.70
2018-07-27T10:06:32.798Z,42.40
2018-07-27T10:07:36.506Z,42.50
2018-07-27T10:09:43.395Z,42.80
2018-07-27T10:10:48.410Z,42.80
2018-07-27T10:11:51.992Z,43.20
2018-07-27T10:12:55.562Z,43.20
2018-07-27T10:13:59.446Z,43.30
2018-07-27T10:15:03.035Z,43.80
2018-07-27T10:16:07.137Z,43.70
2018-07-27T10:17:10.974Z,44.30
2018-07-27T10:18:15.234Z,44.30
2018-07-27T10:19:18.752Z,43.60
2018-07-27T10:20:22.301Z,43.60
2018-07-27T10:21:25.862Z,44.40
2018-07-27T10:22:29.439Z,44.30
2018-07-27T10:23:33.110Z,44.60
2018-07-27T10:24:36.665Z,44.60
2018-07-27T10:25:40.168Z,44.80
2018-07-27T10:26:43.912Z,44.70
2018-07-27T10:27:47.863Z,44.60
2018-07-27T10:28:51.589Z,45.30
2018-07-27T10:29:55.048Z,45.00
2018-07-27T10:30:59.450Z,45.40
2018-07-27T10:32:03.066Z,45.50
2018-07-27T10:33:06.640Z,45.40
2018-07-27T10:34:26.333Z,44.90
2018-07-27T10:36:13.558Z,45.60
2018-07-27T11:08:00.949Z,48.20
2018-07-27T11:33:48.098Z,48.50
2018-07-27T12:25:13.783Z,46.90
2018-07-27T12:26:17.364Z,41.70
2018-07-27T12:27:20.967Z,40.90
2018-07-27T12:28:24.661Z,41.90
2018-07-27T12:29:28.859Z,42.20
2018-07-27T12:30:32.551Z,41.80
2018-07-27T12:31:36.145Z,41.90
2018-07-27T12:32:39.835Z,41.80
2018-07-27T12:33:43.298Z,42.10
2018-07-27T12:34:46.977Z,43.30
2018-07-27T12:35:50.750Z,42.20
2018-07-27T12:36:54.423Z,41.20
2018-07-27T12:37:58.106Z,41.30
2018-07-27T12:39:01.762Z,41.10
2018-07-27T12:40:05.795Z,41.00
2018-07-27T12:41:09.485Z,41.20
2018-07-27T12:42:13.136Z,41.70
2018-07-27T12:43:17.116Z,40.40
2018-07-27T12:44:20.634Z,39.80
2018-07-27T12:45:24.922Z,39.90
2018-07-27T12:46:29.391Z,39.60
2018-07-27T12:47:32.947Z,39.70
2018-07-27T12:48:36.497Z,40.60
2018-07-27T12:49:39.991Z,40.50
2018-07-27T12:50:43.759Z,38.80
2018-07-27T12:51:47.376Z,39.20
2018-07-27T12:52:51.764Z,39.80
2018-07-27T12:53:55.746Z,40.50
2018-07-27T12:54:59.383Z,41.20
2018-07-27T12:56:02.971Z,40.20
2018-07-27T12:57:07.731Z,39.80
2018-07-27T12:58:11.316Z,39.30
2018-07-27T12:59:14.983Z,39.90
2018-07-27T13:00:18.956Z,40.70
2018-07-27T13:01:23.369Z,40.50
2018-07-27T13:02:27.057Z,41.10
2018-07-27T13:03:30.819Z,41.00
2018-07-27T13:04:34.407Z,40.00
2018-07-27T13:05:37.982Z,38.90
2018-07-27T13:06:41.531Z,39.00
2018-07-27T13:07:45.212Z,38.60
2018-07-27T13:08:48.780Z,38.00
2018-07-27T13:09:56.832Z,38.80
2018-07-27T13:11:00.447Z,38.20
2018-07-27T13:12:04.207Z,38.10
2018-07-27T13:13:07.773Z,38.80
2018-07-27T13:14:11.494Z,39.20
2018-07-27T13:15:15.225Z,39.30
2018-07-27T13:16:18.715Z,39.80
2018-07-27T13:17:22.207Z,39.60
2018-07-27T13:18:25.932Z,39.50
2018-07-27T13:19:29.486Z,40.00
2018-07-27T13:20:44.373Z,39.80
2018-07-27T13:21:47.946Z,40.30
2018-07-27T13:22:51.553Z,40.30
2018-07-27T13:23:58.448Z,40.00
2018-07-27T13:25:02.178Z,39.90
2018-07-27T13:27:18.544Z,39.50
2018-07-27T13:28:22.649Z,39.50
2018-07-27T13:29:26.299Z,39.90
2018-07-27T13:30:29.879Z,40.20
2018-07-27T13:31:48.587Z,39.90
2018-07-27T13:32:52.207Z,39.80
2018-07-27T13:34:12.035Z,40.20
2018-07-27T13:35:16.078Z,40.00
2018-07-27T13:36:19.864Z,39.90
2018-07-27T13:37:24.930Z,39.80
2018-07-27T13:38:29.009Z,39.60
2018-07-27T13:39:33.727Z,39.80
2018-07-27T13:40:37.461Z,38.70
2018-07-27T13:41:40.937Z,39.60
2018-07-27T13:42:45.215Z,39.20
2018-07-27T13:43:48.885Z,39.00
2018-07-27T13:44:52.568Z,39.00
2018-07-27T13:45:56.345Z,39.20
2018-07-27T13:47:00.480Z,38.90
2018-07-27T13:48:05.199Z,38.40
2018-07-27T13:49:09.541Z,38.20
2018-07-27T13:50:13.316Z,38.30
2018-07-27T13:51:17.721Z,38.00
2018-07-27T13:52:21.235Z,38.50
2018-07-27T13:53:25.464Z,38.90
2018-07-27T13:54:30.062Z,39.30
2018-07-27T13:55:33.562Z,39.20
2018-07-27T13:56:37.164Z,38.70
2018-07-27T13:57:41.005Z,38.70
2018-07-27T13:58:44.484Z,38.90
2018-07-27T13:59:48.389Z,38.60
2018-07-27T14:00:51.904Z,39.60
2018-07-27T14:01:55.564Z,39.10
2018-07-27T14:02:59.379Z,39.20
2018-07-27T14:04:03.013Z,39.40
2018-07-27T14:05:06.872Z,40.10
2018-07-27T14:06:10.409Z,38.60
2018-07-27T14:07:14.357Z,38.90
2018-07-27T14:08:17.957Z,39.00
2018-07-27T14:09:21.464Z,39.30
2018-07-27T14:10:24.940Z,39.30
2018-07-27T14:12:31.865Z,38.70
2018-07-27T14:13:35.378Z,39.10
2018-07-27T14:15:42.297Z,39.70
2018-07-27T14:16:46.337Z,39.50
2018-07-27T14:17:49.873Z,39.80
2018-07-27T14:18:53.664Z,39.40
2018-07-27T14:19:57.179Z,38.90
2018-07-27T14:21:00.712Z,38.90
2018-07-27T14:22:04.385Z,39.90
2018-07-27T14:23:07.876Z,39.80
2018-07-27T14:24:11.466Z,39.70
2018-07-27T14:25:14.905Z,39.60
2018-07-27T14:26:21.438Z,39.00
2018-07-27T14:27:24.925Z,39.30
2018-07-27T14:28:28.579Z,39.10
2018-07-27T14:29:32.203Z,38.80
2018-07-27T14:30:35.678Z,38.90
2018-07-27T14:31:39.307Z,39.10
2018-07-27T14:32:42.971Z,38.90
2018-07-27T14:33:47.111Z,39.00
2018-07-27T14:34:51.490Z,38.50
2018-07-27T14:35:55.124Z,38.70
2018-07-27T14:36:59.283Z,38.90
2018-07-27T14:38:03.215Z,38.80
2018-07-27T14:39:11.493Z,38.60
2018-07-27T14:41:20.192Z,39.00
2018-07-27T14:42:23.683Z,39.10
2018-07-27T14:43:27.250Z,39.30
2018-07-27T14:44:31.585Z,39.20
2018-07-27T14:45:35.412Z,38.80
2018-07-27T14:46:39.265Z,38.80
2018-07-27T14:47:43.058Z,38.40
2018-07-27T14:48:46.737Z,38.60
2018-07-27T14:49:50.599Z,38.90
2018-07-27T14:50:54.764Z,38.60
2018-07-27T14:51:58.252Z,38.30
2018-07-27T14:53:01.829Z,39.20
2018-07-27T14:54:06.721Z,39.60
2018-07-27T14:55:10.276Z,38.50
2018-07-27T14:57:17.845Z,39.10
2018-07-27T14:58:21.621Z,39.10
2018-07-27T14:59:25.217Z,39.60
2018-07-27T15:00:29.316Z,39.50
2018-07-27T15:01:33.123Z,39.70
2018-07-27T15:02:36.611Z,39.60
2018-07-27T15:03:40.513Z,40.10
2018-07-27T15:04:45.408Z,40.40
2018-07-27T15:05:48.922Z,40.20
2018-07-27T15:06:52.484Z,40.20
2018-07-27T15:07:56.029Z,40.40
2018-07-27T15:09:00.133Z,40.50
2018-07-27T15:10:03.785Z,40.30
2018-07-27T15:11:07.923Z,40.50
2018-07-27T15:12:11.520Z,40.20
2018-07-27T15:13:15.268Z,40.00
2018-07-27T15:14:18.869Z,39.60
2018-07-27T15:15:22.377Z,39.40
2018-07-27T15:16:25.875Z,39.50
2018-07-27T15:17:29.467Z,39.40
2018-07-27T15:18:33.054Z,39.60
2018-07-27T15:19:37.062Z,39.50
2018-07-27T15:20:40.728Z,39.50
2018-07-27T15:21:44.391Z,38.60
2018-07-27T15:22:47.965Z,39.10
2018-07-27T15:23:51.555Z,38.90
2018-07-27T15:24:55.165Z,39.20
2018-07-27T15:25:58.747Z,39.60
2018-07-27T15:27:02.300Z,39.70
2018-07-27T15:28:06.711Z,39.90
2018-07-27T15:29:10.431Z,40.20
2018-07-27T15:30:13.988Z,40.40
2018-07-27T15:31:17.747Z,40.60
2018-07-27T15:32:21.442Z,40.40
2018-07-27T15:33:25.001Z,40.70
2018-07-27T15:34:28.568Z,40.90
2018-07-27T15:35:32.244Z,40.50
2018-07-27T15:36:35.931Z,41.20
2018-07-27T15:37:39.634Z,40.50
2018-07-27T15:38:43.335Z,40.60
2018-07-27T15:39:46.956Z,40.70
2018-07-27T15:40:50.537Z,40.70
2018-07-27T15:41:54.221Z,40.70
2018-07-27T15:42:57.776Z,41.00
2018-07-27T15:44:01.325Z,40.70
2018-07-27T15:45:05.458Z,40.50
2018-07-27T15:46:09.447Z,40.40
2018-07-27T15:47:13.049Z,40.50
2018-07-27T15:49:19.972Z,41.00
2018-07-27T15:50:23.515Z,40.80
2018-07-27T15:51:27.309Z,40.50
2018-07-27T15:53:34.232Z,40.90
2018-07-27T15:54:37.821Z,40.60
2018-07-27T15:55:41.345Z,41.00
2018-07-27T15:56:44.970Z,41.10